Time;durP1;ratioP1;P1;durP2;ratioP2;P2;SDS_P1;SDS_P2;PMS_P1;PMS_P2;Temp;Humidity;BMP_temperature;BMP_pressure;BME280_temperature;BME280_humidity;BME280_pressure;Samples;Min_cycle;Max_cycle;Signal;HPM_P1;HPM_P2
2022/04/03 04:04:34;;;;;;;18.77;16.23;;;-1.00;99.90;;;;;;5771309;23;20531;-79
2022/04/03 04:07:02;;;;;;;18.77;16.40;;;-0.90;99.90;;;;;;4911494;29;20540;-79
2022/04/03 04:09:31;;;;;;;21.00;15.83;;;-0.90;99.90;;;;;;4898348;29;20494;-82
2022/04/03 04:11:59;;;;;;;17.83;15.93;;;-0.90;99.90;;;;;;4925075;29;20884;-78
2022/04/03 04:14:27;;;;;;;19.47;16.43;;;-0.90;99.90;;;;;;4936515;29;20448;-80
2022/04/03 04:16:55;;;;;;;19.33;16.77;;;-1.00;99.90;;;;;;4936366;29;20459;-74
2022/04/03 04:19:24;;;;;;;18.17;16.23;;;-0.90;99.90;;;;;;4935616;29;20448;-77
2022/04/03 04:21:53;;;;;;;19.10;16.07;;;-0.90;99.90;;;;;;4936457;29;20551;-76
2022/04/03 04:24:21;;;;;;;18.57;16.43;;;-1.00;99.90;;;;;;4918876;29;20461;-74
2022/04/03 04:26:50;;;;;;;19.07;17.07;;;-1.00;99.90;;;;;;4936210;29;20429;-81
2022/04/03 04:29:17;;;;;;;20.33;16.63;;;-1.00;99.90;;;;;;4925759;29;20474;-80
2022/04/03 04:31:46;;;;;;;18.23;15.77;;;-1.00;99.90;;;;;;4910690;29;20976;-80
2022/04/03 04:34:16;;;;;;;17.43;15.60;;;-1.00;99.90;;;;;;4898471;29;20493;-80
2022/04/03 04:36:44;;;;;;;18.33;15.63;;;-1.00;99.90;;;;;;4904821;29;20489;-81
2022/04/03 04:39:14;;;;;;;20.23;16.00;;;-1.00;99.90;;;;;;4917123;29;20540;-81
2022/04/03 04:41:42;;;;;;;21.33;16.13;;;-1.00;99.90;;;;;;4917100;29;21049;-81
2022/04/03 04:44:11;;;;;;;18.57;14.80;;;-1.00;99.90;;;;;;4917343;29;20544;-80
2022/04/03 04:46:39;;;;;;;15.70;13.97;;;-1.00;99.90;;;;;;4917279;29;20528;-82
2022/04/03 04:49:07;;;;;;;18.00;15.50;;;-1.00;99.90;;;;;;4917064;29;20488;-80
2022/04/03 17:55:16;;;;;;;6.63;5.07;;;0.40;99.90;;;;;;4893679;29;21037;-78
2022/04/03 17:57:46;;;;;;;6.40;5.00;;;0.40;99.90;;;;;;4894887;29;20480;-75
2022/04/03 18:00:15;;;;;;;9.17;4.90;;;0.30;99.90;;;;;;4907061;29;20480;-77
2022/04/03 18:02:43;;;;;;;6.93;4.93;;;0.20;99.90;;;;;;4916265;29;20461;-74
2022/04/03 18:05:11;;;;;;;7.87;5.40;;;0.20;99.90;;;;;;4897769;29;20462;-77
2022/04/03 18:07:44;;;;;;;9.07;6.47;;;0.20;99.90;;;;;;4897528;29;20511;-78
2022/04/03 18:10:16;;;;;;;7.10;6.27;;;0.10;99.90;;;;;;4897177;29;20821;-76
2022/04/03 18:12:45;;;;;;;8.70;5.80;;;0.10;99.90;;;;;;4912275;29;20538;-76
2022/04/03 18:15:14;;;;;;;6.97;5.57;;;0.00;99.90;;;;;;4914048;29;20465;-77
2022/04/03 18:17:42;;;;;;;7.00;5.10;;;0.00;99.90;;;;;;4898368;29;20478;-76
2022/04/03 18:20:30;;;;;;;7.10;5.47;;;0.00;99.90;;;;;;4897509;29;20849;-78
2022/04/03 18:23:04;;;;;;;7.30;5.00;;;0.00;99.90;;;;;;4897780;29;20458;-76
2022/04/03 18:25:33;;;;;;;7.07;5.10;;;0.00;99.90;;;;;;4897879;29;20458;-76
2022/04/03 18:28:04;;;;;;;6.53;5.33;;;-0.10;99.90;;;;;;4897245;29;20458;-77
2022/04/03 18:30:33;;;;;;;6.77;5.37;;;-0.10;99.90;;;;;;4896933;29;20460;-75
2022/04/03 18:33:02;;;;;;;8.00;5.40;;;-0.10;99.90;;;;;;4896773;29;20468;-77
2022/04/03 18:35:31;;;;;;;6.93;5.60;;;-0.10;99.90;;;;;;4894192;29;20478;-77
2022/04/03 18:38:00;;;;;;;6.43;5.70;;;-0.10;99.90;;;;;;4896265;29;20457;-78
2022/04/03 18:40:28;;;;;;;7.40;6.00;;;-0.10;99.90;;;;;;4897039;29;20456;-76
2022/04/03 18:42:59;;;;;;;7.70;5.90;;;-0.20;99.90;;;;;;4898623;29;20489;-78
2022/04/03 18:45:27;;;;;;;8.90;6.43;;;-0.20;99.90;;;;;;4899388;29;20438;-75
2022/04/03 18:47:56;;;;;;;7.90;5.43;;;-0.20;99.90;;;;;;4903665;29;20486;-76
2022/04/03 18:50:27;;;;;;;7.23;5.50;;;-0.30;99.90;;;;;;4908740;29;20458;-75
2022/04/03 18:52:56;;;;;;;8.37;5.23;;;-0.30;99.90;;;;;;4894059;29;20475;-78
2022/04/03 18:55:24;;;;;;;9.07;5.53;;;-0.40;99.90;;;;;;4888277;29;20515;-77
2022/04/03 18:57:53;;;;;;;8.10;5.70;;;-0.40;99.90;;;;;;4881520;29;20494;-77
2022/04/03 19:00:23;;;;;;;7.80;6.23;;;-0.50;99.90;;;;;;4899206;29;20533;-78
2022/04/03 19:02:51;;;;;;;8.13;6.80;;;-0.60;99.90;;;;;;4899505;29;20537;-77
2022/04/03 19:05:20;;;;;;;9.70;8.10;;;-0.60;99.90;;;;;;4886195;29;20491;-79
2022/04/03 19:07:48;;;;;;;11.30;8.37;;;-0.70;99.90;;;;;;4899194;29;20467;-79
2022/04/03 19:10:16;;;;;;;11.53;8.63;;;-0.70;99.90;;;;;;4901121;29;20459;-79
2022/04/03 19:12:45;;;;;;;11.07;8.87;;;-0.70;99.90;;;;;;4900953;29;20457;-78
2022/04/03 19:15:13;;;;;;;12.00;9.50;;;-0.80;99.90;;;;;;4900051;29;20469;-79
2022/04/03 19:17:43;;;;;;;12.60;9.60;;;-0.80;99.90;;;;;;4899927;29;20513;-77
2022/04/03 19:20:11;;;;;;;13.85;11.50;;;-0.90;99.90;;;;;;4899695;29;20491;-79
2022/04/03 19:22:39;;;;;;;16.20;12.07;;;-0.90;99.90;;;;;;4900630;29;20234;-79
2022/04/03 19:25:09;;;;;;;14.73;11.53;;;-0.90;99.90;;;;;;4889470;29;20554;-77
2022/04/03 19:27:37;;;;;;;14.53;10.77;;;-1.00;99.90;;;;;;4899948;29;21000;-79
2022/04/03 19:30:06;;;;;;;14.73;10.50;;;-1.00;99.90;;;;;;4900053;29;20467;-77
2022/04/03 19:32:34;;;;;;;15.37;10.10;;;-1.00;99.90;;;;;;4900341;29;21032;-78
2022/04/03 19:35:05;;;;;;;10.93;9.37;;;-1.10;99.90;;;;;;4889383;29;20497;-76
2022/04/03 19:37:34;;;;;;;11.27;8.97;;;-1.10;99.90;;;;;;4888264;29;20545;-79
2022/04/03 19:40:03;;;;;;;12.33;9.00;;;-1.20;99.90;;;;;;4900270;29;20521;-77
2022/04/03 19:42:35;;;;;;;12.20;8.33;;;-1.10;99.90;;;;;;4900921;29;20526;-78
2022/04/03 19:45:04;;;;;;;10.83;8.13;;;-1.20;99.90;;;;;;4900705;29;20458;-79
2022/04/03 19:47:33;;;;;;;9.33;7.47;;;-1.20;99.90;;;;;;4893765;29;20840;-78
2022/04/03 19:50:04;;;;;;;11.10;8.60;;;-1.20;99.90;;;;;;4900602;29;20456;-78
2022/04/03 19:52:33;;;;;;;9.73;8.03;;;-1.30;99.90;;;;;;4901013;29;20236;-78
2022/04/03 19:55:01;;;;;;;9.70;7.40;;;-1.30;99.90;;;;;;4900052;29;20474;-78
2022/04/03 19:57:30;;;;;;;9.97;7.53;;;-1.30;99.90;;;;;;4900094;29;20454;-78
2022/04/03 19:59:58;;;;;;;11.00;7.73;;;-1.30;99.90;;;;;;4899814;29;20459;-77
2022/04/03 20:02:27;;;;;;;10.40;7.57;;;-1.40;99.90;;;;;;4895954;29;20894;-76
2022/04/03 20:04:55;;;;;;;9.80;7.63;;;-1.40;99.90;;;;;;4900069;29;20490;-77
2022/04/03 20:07:26;;;;;;;11.67;8.07;;;-1.40;99.90;;;;;;4898809;29;20466;-75
2022/04/03 20:09:54;;;;;;;12.50;9.63;;;-1.40;99.90;;;;;;4897931;29;20438;-77
2022/04/03 20:12:23;;;;;;;12.20;9.47;;;-1.40;99.90;;;;;;4897511;29;20958;-77
2022/04/03 20:14:52;;;;;;;11.40;8.60;;;-1.50;99.90;;;;;;4899048;29;20458;-78
2022/04/03 20:17:20;;;;;;;11.70;8.67;;;-1.50;99.90;;;;;;4892194;29;20517;-79
2022/04/03 20:19:48;;;;;;;9.93;8.47;;;-1.50;99.90;;;;;;4891077;29;20463;-77
2022/04/03 20:22:16;;;;;;;10.80;8.67;;;-1.50;99.90;;;;;;4881755;29;20522;-76
2022/04/03 20:24:46;;;;;;;10.57;9.23;;;-1.60;99.90;;;;;;4892465;29;20500;-76
2022/04/03 20:27:15;;;;;;;11.43;9.30;;;-1.50;99.90;;;;;;4898872;29;20485;-78
2022/04/03 20:29:43;;;;;;;12.13;9.20;;;-1.50;99.90;;;;;;4896149;29;20458;-77
2022/04/03 20:32:12;;;;;;;10.13;8.17;;;-1.50;99.90;;;;;;4903646;29;20539;-76
2022/04/03 20:34:40;;;;;;;10.83;8.93;;;-1.50;99.90;;;;;;4908084;29;20473;-77
2022/04/03 20:37:08;;;;;;;10.30;8.30;;;-1.50;99.90;;;;;;4900913;29;20529;-79
2022/04/03 20:39:37;;;;;;;9.10;7.90;;;-1.50;99.90;;;;;;4897484;29;20462;-76
2022/04/03 20:42:07;;;;;;;9.07;8.03;;;-1.50;99.90;;;;;;4898057;29;20492;-77
2022/04/03 20:44:35;;;;;;;9.53;7.60;;;-1.50;99.90;;;;;;4897467;29;20458;-77
2022/04/03 20:47:04;;;;;;;9.03;7.43;;;-1.50;99.90;;;;;;4897916;29;20975;-78
2022/04/03 20:49:33;;;;;;;8.50;6.83;;;-1.40;99.90;;;;;;4897498;29;20482;-77
2022/04/03 20:52:01;;;;;;;9.47;7.33;;;-1.40;99.90;;;;;;4894211;29;20898;-76
2022/04/03 20:54:29;;;;;;;8.40;7.20;;;-1.30;99.90;;;;;;4881959;29;20894;-78
2022/04/03 20:56:57;;;;;;;8.60;7.10;;;-1.30;99.90;;;;;;4913055;29;20461;-76
2022/04/03 20:59:26;;;;;;;10.03;7.30;;;-1.20;99.90;;;;;;4916722;29;20509;-77
2022/04/03 21:01:55;;;;;;;11.90;7.50;;;-1.20;99.90;;;;;;4916613;29;20469;-76
2022/04/03 21:04:24;;;;;;;8.80;7.13;;;-1.10;99.90;;;;;;4905091;29;20494;-77
2022/04/03 21:06:53;;;;;;;8.70;7.27;;;-1.10;99.90;;;;;;4886522;29;20535;-77
2022/04/03 21:09:21;;;;;;;9.53;7.30;;;-1.00;99.90;;;;;;4879167;29;20463;-77
2022/04/03 21:11:50;;;;;;;8.43;6.80;;;-1.00;99.90;;;;;;4879180;29;20521;-77
2022/04/03 21:14:18;;;;;;;8.77;6.60;;;-1.00;99.90;;;;;;4879467;29;20470;-75
2022/04/03 21:16:48;;;;;;;8.93;6.80;;;-1.00;99.90;;;;;;4879218;29;20471;-77
2022/04/03 21:19:22;;;;;;;9.03;6.93;;;-1.00;99.90;;;;;;4879433;29;20474;-77
2022/04/03 21:21:50;;;;;;;10.07;6.90;;;-1.00;99.90;;;;;;4879244;29;20456;-76
2022/04/03 21:24:20;;;;;;;7.80;7.00;;;-1.00;99.90;;;;;;4878970;29;20511;-76
2022/04/03 21:26:49;;;;;;;10.97;7.23;;;-1.00;99.90;;;;;;4879107;29;20457;-78
2022/04/03 21:29:17;;;;;;;7.17;6.43;;;-1.00;99.90;;;;;;4890854;29;20493;-78
2022/04/03 21:31:45;;;;;;;7.70;6.80;;;-1.00;99.90;;;;;;4897070;29;20485;-77
2022/04/03 21:34:17;;;;;;;8.90;7.47;;;-1.00;99.90;;;;;;4897703;29;20893;-78
2022/04/03 21:36:44;;;;;;;10.27;7.60;;;-1.00;99.90;;;;;;4896663;29;20446;-78
2022/04/03 21:39:13;;;;;;;8.80;7.23;;;-1.00;99.90;;;;;;4892384;29;20473;-76
2022/04/03 21:41:41;;;;;;;8.57;7.17;;;-1.00;99.90;;;;;;4893194;29;20552;-77
2022/04/03 21:44:09;;;;;;;10.87;7.80;;;-1.10;99.90;;;;;;4897036;29;21252;-77
2022/04/03 21:46:38;;;;;;;8.90;7.30;;;-1.10;99.90;;;;;;4897461;29;20498;-76
2022/04/03 21:49:06;;;;;;;10.07;7.50;;;-1.10;99.90;;;;;;4897802;29;20465;-78
2022/04/03 21:51:38;;;;;;;10.13;7.70;;;-1.10;99.90;;;;;;4897979;29;20475;-78
2022/04/03 21:54:06;;;;;;;10.40;7.60;;;-1.20;99.90;;;;;;4896232;29;20509;-78
2022/04/03 21:56:38;;;;;;;12.73;9.73;;;-1.30;99.90;;;;;;4897060;29;20969;-78
2022/04/03 21:59:07;;;;;;;14.23;10.57;;;-1.20;99.90;;;;;;4897046;29;20469;-79
2022/04/03 22:01:37;;;;;;;13.90;9.40;;;-1.20;99.90;;;;;;4895091;29;20488;-79
2022/04/03 22:04:05;;;;;;;12.77;8.73;;;-1.20;99.90;;;;;;4895311;29;20490;-78
2022/04/03 22:06:34;;;;;;;12.50;8.27;;;-1.20;99.90;;;;;;4878848;29;20550;-78
2022/04/03 22:09:04;;;;;;;13.17;8.07;;;-1.20;99.90;;;;;;4878564;29;20498;-76
2022/04/03 22:11:35;;;;;;;9.80;7.70;;;-1.30;99.90;;;;;;4878789;29;20487;-77
2022/04/03 22:14:04;;;;;;;8.93;7.10;;;-1.30;99.90;;;;;;4878938;29;20490;-76
2022/04/03 22:16:33;;;;;;;8.23;6.43;;;-1.40;99.90;;;;;;4880561;29;21196;-77
2022/04/03 22:19:01;;;;;;;8.87;7.70;;;-1.40;99.90;;;;;;4882490;29;20876;-78
2022/04/03 22:21:29;;;;;;;11.83;7.90;;;-1.50;99.90;;;;;;4889318;29;20462;-77
2022/04/03 22:23:57;;;;;;;11.00;9.63;;;-1.50;99.90;;;;;;4900778;29;20498;-79
2022/04/03 22:26:27;;;;;;;13.27;9.97;;;-1.50;99.90;;;;;;4899796;29;20454;-76
2022/04/03 22:28:55;;;;;;;11.23;8.93;;;-1.50;99.90;;;;;;4899803;29;20462;-78
